createdAt,value
2019-05-06T00:02:13.804Z,27.00
2019-05-06T00:04:44.712Z,24.60
2019-05-06T00:07:13.839Z,18.23
2019-05-06T00:09:44.177Z,21.93
2019-05-06T00:12:14.505Z,16.10
2019-05-06T00:14:43.779Z,19.03
2019-05-06T00:17:14.542Z,20.87
2019-05-06T00:19:44.753Z,20.93
2019-05-06T00:22:14.246Z,26.67
2019-05-06T00:24:44.931Z,19.87
2019-05-06T00:27:15.595Z,18.60
2019-05-06T00:29:46.877Z,25.27
2019-05-06T00:32:15.335Z,37.90
2019-05-06T00:34:44.375Z,11.50
2019-05-06T00:37:14.629Z,13.87
2019-05-06T00:39:45.422Z,11.13
2019-05-06T00:42:16.079Z,15.93
2019-05-06T00:44:45.160Z,16.57
2019-05-06T00:47:14.185Z,19.93
2019-05-06T00:49:43.623Z,29.93
2019-05-06T00:52:13.643Z,21.27
2019-05-06T00:54:43.659Z,18.37
2019-05-06T00:57:13.998Z,18.07
2019-05-06T00:59:44.128Z,23.40
2019-05-06T01:02:14.071Z,29.77
2019-05-06T01:04:44.626Z,55.10
2019-05-06T01:07:14.038Z,37.10
2019-05-06T01:09:43.919Z,33.30
2019-05-06T01:12:14.358Z,22.23
2019-05-06T01:14:45.247Z,29.73
2019-05-06T01:17:14.382Z,18.97
2019-05-06T01:19:45.690Z,21.13
2019-05-06T01:22:14.107Z,16.90
2019-05-06T01:24:43.919Z,14.00
2019-05-06T01:27:14.519Z,17.80
2019-05-06T01:29:44.141Z,11.87
2019-05-06T01:32:13.941Z,18.37
2019-05-06T01:34:44.643Z,14.03
2019-05-06T01:37:14.248Z,26.53
2019-05-06T01:39:45.034Z,22.17
2019-05-06T01:42:15.706Z,14.53
2019-05-06T01:44:44.899Z,19.53
2019-05-06T01:47:14.552Z,11.73
2019-05-06T01:49:44.234Z,17.77
2019-05-06T01:52:14.717Z,10.27
2019-05-06T01:54:43.754Z,13.57
2019-05-06T01:57:13.708Z,19.93
2019-05-06T01:59:44.359Z,18.40
2019-05-06T02:02:14.371Z,43.33
2019-05-06T02:04:44.416Z,25.60
2019-05-06T02:07:14.463Z,35.40
2019-05-06T02:09:44.778Z,52.63
2019-05-06T02:12:13.996Z,45.77
2019-05-06T02:14:43.655Z,86.70
2019-05-06T02:17:14.400Z,192.33
2019-05-06T02:19:43.917Z,217.27
2019-05-06T02:22:14.538Z,277.67
2019-05-06T02:24:45.218Z,314.60
2019-05-06T02:27:14.438Z,387.37
2019-05-06T02:29:45.128Z,548.80
2019-05-06T02:32:25.523Z,426.73
2019-05-06T02:34:48.133Z,521.73
2019-05-06T02:37:18.831Z,539.20
2019-05-06T02:39:47.880Z,551.83
2019-05-06T02:42:16.924Z,496.53
2019-05-06T02:44:46.003Z,641.97
2019-05-06T02:47:16.762Z,635.87
2019-05-06T02:49:47.427Z,630.33
2019-05-06T02:52:16.452Z,763.73
2019-05-06T02:54:45.471Z,964.70
2019-05-06T02:57:14.501Z,875.23
2019-05-06T02:59:44.146Z,918.63
2019-05-06T03:02:14.343Z,855.10
2019-05-06T03:04:43.827Z,866.10
2019-05-06T03:07:14.468Z,853.43
2019-05-06T03:09:44.549Z,899.57
2019-05-06T03:12:14.831Z,879.37
2019-05-06T03:14:43.956Z,1058.23
2019-05-06T03:17:14.177Z,1106.87
2019-05-06T03:19:46.030Z,1010.27
2019-05-06T03:22:16.809Z,1038.63
2019-05-06T03:24:47.476Z,1328.50
2019-05-06T03:27:16.514Z,1194.93
2019-05-06T03:29:45.541Z,1526.67
2019-05-06T03:32:21.611Z,1526.07
2019-05-06T03:35:01.215Z,1723.03
2019-05-06T03:37:17.059Z,1801.73
2019-05-06T03:39:46.556Z,1999.90
2019-05-06T03:42:16.594Z,1999.90
2019-05-06T03:44:47.588Z,1905.83
2019-05-06T03:47:18.253Z,1894.83
2019-05-06T03:49:50.083Z,1999.90
2019-05-06T03:52:23.238Z,1999.90
2019-05-06T03:54:53.636Z,1999.90
2019-05-06T03:57:23.355Z,1999.90
2019-05-06T03:59:54.877Z,1999.90
2019-05-06T04:02:24.262Z,1999.90
2019-05-06T04:08:24.134Z,1572.17
2019-05-06T04:10:54.046Z,1999.90
2019-05-06T04:13:23.321Z,1999.90
2019-05-06T04:15:54.239Z,1999.90
2019-05-06T04:21:43.640Z,1999.90
2019-05-06T04:24:14.302Z,1999.90
2019-05-06T04:26:46.417Z,1999.90
2019-05-06T04:29:14.920Z,1999.90
2019-05-06T04:31:44.040Z,1999.90
2019-05-06T04:34:18.230Z,1999.90
2019-05-06T04:36:44.160Z,1999.90
2019-05-06T04:39:13.415Z,1999.90
2019-05-06T04:41:43.310Z,1999.90
2019-05-06T04:44:13.861Z,1999.90
2019-05-06T04:46:45.589Z,1999.90
2019-05-06T04:49:16.241Z,1999.90
2019-05-06T04:51:45.233Z,1999.90
2019-05-06T04:54:14.260Z,1999.90
2019-05-06T04:56:43.918Z,1999.90
2019-05-06T04:59:14.100Z,1999.90
2019-05-06T05:01:45.559Z,1999.90
2019-05-06T05:04:24.570Z,1999.90
2019-05-06T05:06:45.268Z,1999.90
2019-05-06T05:09:17.151Z,1999.90
2019-05-06T05:11:46.641Z,1999.90
2019-05-06T05:14:21.677Z,1999.90
2019-05-06T05:16:49.746Z,1999.90
2019-05-06T05:19:18.844Z,1965.73
2019-05-06T05:21:52.790Z,1999.90
2019-05-06T05:24:23.535Z,1862.70
2019-05-06T05:26:52.716Z,1999.90
2019-05-06T05:29:22.867Z,1999.90
2019-05-06T05:31:52.977Z,1999.90
2019-05-06T05:34:22.586Z,1925.63
2019-05-06T05:36:52.781Z,1999.90
2019-05-06T05:39:22.338Z,1999.90
2019-05-06T05:41:52.931Z,1993.30
2019-05-06T05:44:23.613Z,1994.90
2019-05-06T05:46:52.660Z,1645.70
2019-05-06T05:49:24.573Z,1504.20
2019-05-06T05:51:53.647Z,1706.63
2019-05-06T05:54:23.136Z,1999.90
2019-05-06T05:56:52.932Z,1967.53
2019-05-06T05:59:23.238Z,1645.77
2019-05-06T06:01:53.069Z,1972.70
2019-05-06T06:04:22.496Z,1532.63
2019-05-06T06:06:52.042Z,1428.03
2019-05-06T06:09:22.974Z,1999.90
2019-05-06T06:11:53.732Z,1573.40
2019-05-06T06:14:24.410Z,1999.90
2019-05-06T06:16:55.340Z,1588.43
2019-05-06T06:19:26.204Z,1999.90
2019-05-06T06:21:56.951Z,1389.70
2019-05-06T06:24:27.969Z,1798.90
2019-05-06T06:26:57.005Z,1207.23
2019-05-06T06:29:26.014Z,978.20
2019-05-06T06:31:56.681Z,1503.83
2019-05-06T06:34:27.327Z,1577.20
2019-05-06T06:36:58.001Z,968.93
2019-05-06T06:39:28.724Z,1493.20
2019-05-06T06:41:57.742Z,974.53
2019-05-06T06:44:28.394Z,1999.90
2019-05-06T06:46:57.481Z,1755.53
2019-05-06T06:49:26.561Z,1999.90
2019-05-06T06:51:55.593Z,1999.90
2019-05-06T06:54:24.615Z,1630.30
2019-05-06T06:57:05.249Z,1999.90
2019-05-06T06:59:27.697Z,1999.90
2019-05-06T07:01:58.634Z,992.70
2019-05-06T07:04:29.657Z,1398.17
2019-05-06T07:07:00.033Z,954.57
2019-05-06T07:09:29.777Z,974.67
2019-05-06T07:11:59.006Z,945.60
2019-05-06T07:14:28.058Z,902.07
2019-05-06T07:16:57.091Z,944.27
2019-05-06T07:19:27.737Z,867.20
2019-05-06T07:21:58.363Z,851.93
2019-05-06T07:24:28.340Z,964.23
2019-05-06T07:26:59.017Z,792.73
2019-05-06T07:29:28.025Z,848.60
2019-05-06T07:31:57.088Z,927.90
2019-05-06T07:34:26.090Z,961.87
2019-05-06T07:36:55.198Z,902.30
2019-05-06T07:39:24.300Z,769.37
2019-05-06T07:41:55.046Z,1999.90
2019-05-06T07:44:25.693Z,1999.90
2019-05-06T07:46:56.355Z,1999.90
2019-05-06T07:49:25.452Z,1260.03
2019-05-06T07:51:54.492Z,786.10
2019-05-06T07:54:23.556Z,1461.07
2019-05-06T07:56:52.783Z,1572.23
2019-05-06T07:59:22.441Z,871.43
2019-05-06T08:01:53.859Z,826.97
2019-05-06T08:04:23.058Z,1487.70
2019-05-06T08:06:52.352Z,880.57
2019-05-06T08:09:22.152Z,787.60
2019-05-06T08:11:53.031Z,1999.90
2019-05-06T08:14:22.619Z,924.73
2019-05-06T08:16:53.438Z,918.67
2019-05-06T08:19:22.853Z,1999.90
2019-05-06T08:21:53.473Z,861.33
2019-05-06T08:24:22.803Z,895.27
2019-05-06T08:26:52.232Z,900.03
2019-05-06T08:29:22.478Z,1955.20
2019-05-06T08:31:52.456Z,1999.90
2019-05-06T08:34:22.576Z,1999.90
2019-05-06T08:36:53.467Z,1986.60
2019-05-06T08:39:22.512Z,1999.90
2019-05-06T08:41:52.857Z,851.60
2019-05-06T08:44:22.491Z,802.00
2019-05-06T08:46:53.235Z,1333.40
2019-05-06T08:49:22.616Z,1982.53
2019-05-06T08:51:53.326Z,835.03
2019-05-06T08:54:24.026Z,901.83
2019-05-06T08:56:53.043Z,1999.90
2019-05-06T08:59:24.068Z,1194.47
2019-05-06T09:01:54.449Z,931.70
2019-05-06T09:04:24.468Z,1097.03
2019-05-06T09:06:53.722Z,902.27
2019-05-06T09:09:23.718Z,851.30
2019-05-06T09:11:53.475Z,949.43
2019-05-06T09:14:23.365Z,800.27
2019-05-06T09:16:53.875Z,1999.90
2019-05-06T09:19:23.535Z,893.87
2019-05-06T09:21:53.342Z,791.40
2019-05-06T09:24:23.157Z,975.77
2019-05-06T09:26:53.974Z,795.63
2019-05-06T09:29:24.649Z,850.60
2019-05-06T09:31:55.304Z,844.03
2019-05-06T09:34:25.986Z,925.63
2019-05-06T09:36:56.628Z,1980.43
2019-05-06T09:39:25.762Z,853.90
2019-05-06T09:41:58.001Z,863.23
2019-05-06T09:44:25.430Z,1301.60
2019-05-06T09:46:55.256Z,1124.50
2019-05-06T09:49:25.923Z,898.97
2019-05-06T09:51:54.995Z,801.20
2019-05-06T09:54:25.664Z,878.27
2019-05-06T09:56:56.321Z,1999.90
2019-05-06T09:59:26.462Z,1872.13
2019-05-06T10:01:55.571Z,1999.90
2019-05-06T10:04:24.608Z,1320.73
2019-05-06T10:06:57.327Z,791.80
2019-05-06T10:09:25.079Z,848.23
2019-05-06T10:11:54.294Z,959.27
2019-05-06T10:14:24.438Z,1999.90
2019-05-06T10:16:53.526Z,919.43
2019-05-06T10:19:22.781Z,849.67
2019-05-06T10:21:53.093Z,1193.43
2019-05-06T10:24:23.368Z,1444.23
2019-05-06T10:26:54.105Z,924.90
2019-05-06T10:29:24.940Z,1638.00
2019-05-06T10:31:55.665Z,988.97
2019-05-06T10:34:24.715Z,1977.03
2019-05-06T10:37:11.488Z,1028.47
2019-05-06T10:39:29.165Z,951.77
2019-05-06T10:42:01.394Z,1999.90
2019-05-06T10:44:32.969Z,863.30
2019-05-06T10:47:02.920Z,1200.03
2019-05-06T10:49:33.701Z,834.03
2019-05-06T10:52:04.535Z,860.48
2019-05-06T10:54:33.727Z,846.27
2019-05-06T10:57:04.433Z,870.17
2019-05-06T10:59:33.445Z,956.30
2019-05-06T11:02:05.428Z,866.20
2019-05-06T11:04:34.792Z,1301.30
2019-05-06T11:07:04.156Z,1881.47
2019-05-06T11:09:33.401Z,949.40
2019-05-06T11:12:03.254Z,989.50
2019-05-06T11:14:33.053Z,1145.47
2019-05-06T11:17:04.959Z,1999.90
2019-05-06T11:19:33.211Z,1601.33
2019-05-06T11:22:03.578Z,956.17
2019-05-06T11:24:32.860Z,847.10
2019-05-06T11:27:03.373Z,837.37
2019-05-06T11:29:36.734Z,1977.60
2019-05-06T11:32:06.552Z,901.73
2019-05-06T11:34:37.195Z,926.20
2019-05-06T11:37:07.878Z,878.30
2019-05-06T11:39:36.939Z,1646.97
2019-05-06T11:42:23.825Z,998.27
2019-05-06T11:44:36.614Z,1389.63
2019-05-06T11:47:05.660Z,900.70
2019-05-06T11:49:34.650Z,1162.03
2019-05-06T11:52:04.034Z,884.87
2019-05-06T11:54:33.831Z,1999.90
2019-05-06T11:57:04.170Z,1440.43
2019-05-06T11:59:33.164Z,1590.40
2019-05-06T12:02:03.822Z,1262.97
2019-05-06T12:04:33.053Z,893.33
2019-05-06T12:07:10.182Z,849.37
2019-05-06T12:09:33.354Z,844.70
2019-05-06T12:12:03.341Z,1005.60
2019-05-06T12:14:32.454Z,1732.33
2019-05-06T12:17:02.274Z,893.57
2019-05-06T12:19:32.561Z,983.50
2019-05-06T12:22:01.691Z,1095.27
2019-05-06T12:24:30.753Z,1986.93
2019-05-06T12:26:59.831Z,939.80
2019-05-06T12:29:28.870Z,1005.20
2019-05-06T12:31:59.546Z,1515.87
2019-05-06T12:34:28.501Z,903.07
2019-05-06T12:36:59.150Z,825.07
2019-05-06T12:39:28.780Z,869.20
2019-05-06T12:41:59.395Z,856.90
2019-05-06T12:44:28.804Z,806.03
2019-05-06T12:47:00.121Z,853.57
2019-05-06T12:49:29.207Z,1956.95
2019-05-06T12:51:58.243Z,881.60
2019-05-06T12:54:27.438Z,984.10
2019-05-06T12:56:57.717Z,1566.60
2019-05-06T12:59:27.719Z,1999.90
2019-05-06T13:01:56.746Z,851.63
2019-05-06T13:04:46.087Z,839.17
2019-05-06T13:06:56.580Z,894.60
2019-05-06T13:09:25.693Z,1999.90
2019-05-06T13:11:54.677Z,986.07
2019-05-06T13:14:23.698Z,947.37
2019-05-06T13:16:53.283Z,831.63
2019-05-06T13:19:22.870Z,1609.20
2019-05-06T13:21:52.086Z,1083.27
2019-05-06T13:24:22.843Z,1224.87
2019-05-06T13:26:52.768Z,931.17
2019-05-06T13:29:23.890Z,1026.63
2019-05-06T13:31:53.889Z,943.27
2019-05-06T13:34:23.405Z,1638.67
2019-05-06T13:36:53.474Z,1999.90
2019-05-06T13:39:23.731Z,975.73
2019-05-06T13:41:53.058Z,1141.03
2019-05-06T13:44:22.774Z,1174.60
2019-05-06T13:46:53.251Z,884.00
2019-05-06T13:49:24.469Z,939.43
2019-05-06T13:51:55.141Z,850.60
2019-05-06T13:54:24.160Z,933.87
2019-05-06T13:56:53.194Z,1017.27
2019-05-06T13:59:22.219Z,1541.07
2019-05-06T14:01:52.956Z,980.93
2019-05-06T14:04:24.107Z,870.87
2019-05-06T14:06:52.991Z,843.23
2019-05-06T14:09:29.519Z,934.63
2019-05-06T14:12:18.431Z,949.87
2019-05-06T14:14:47.531Z,945.33
2019-05-06T14:17:16.555Z,1409.80
2019-05-06T14:19:45.576Z,1010.33
2019-05-06T14:22:14.641Z,971.70
2019-05-06T14:24:45.285Z,1052.97
2019-05-06T14:27:15.967Z,922.90
2019-05-06T14:29:46.630Z,984.53
2019-05-06T14:32:15.681Z,1521.93
2019-05-06T14:34:44.783Z,983.10
2019-05-06T14:37:13.823Z,1093.20
2019-05-06T14:39:52.667Z,964.23
2019-05-06T14:42:15.133Z,1384.07
2019-05-06T14:44:44.156Z,1067.70
2019-05-06T14:47:14.816Z,910.07
2019-05-06T14:49:43.813Z,906.90
2019-05-06T14:52:13.308Z,902.13
2019-05-06T14:54:44.122Z,977.97
2019-05-06T14:57:13.948Z,1259.97
2019-05-06T14:59:42.972Z,1194.80
2019-05-06T15:02:13.297Z,1999.90
2019-05-06T15:04:43.400Z,1999.90
2019-05-06T15:07:12.924Z,900.47
2019-05-06T15:09:55.815Z,1349.37
2019-05-06T15:12:13.321Z,1179.33
2019-05-06T15:14:42.688Z,1121.67
2019-05-06T15:17:14.194Z,993.30
2019-05-06T15:19:43.028Z,994.83
2019-05-06T15:22:12.968Z,1010.87
2019-05-06T15:24:42.788Z,973.43
2019-05-06T15:27:12.039Z,932.70
2019-05-06T15:29:42.828Z,918.07
2019-05-06T15:32:13.490Z,986.37
2019-05-06T15:34:44.150Z,1633.80
2019-05-06T15:37:14.819Z,879.30
2019-05-06T15:39:43.925Z,879.97
2019-05-06T15:42:13.016Z,902.70
2019-05-06T15:44:42.516Z,1035.77
2019-05-06T15:47:13.185Z,902.93
2019-05-06T15:49:42.354Z,967.00
2019-05-06T15:55:28.630Z,1091.00
2019-05-06T15:57:57.685Z,950.63
2019-05-06T16:00:26.792Z,1829.47
2019-05-06T16:02:55.836Z,1165.27
2019-05-06T16:05:26.620Z,949.73
2019-05-06T16:07:55.533Z,906.53
2019-05-06T16:10:24.583Z,1812.27
2019-05-06T16:12:53.724Z,1679.40
2019-05-06T16:15:24.834Z,913.10
2019-05-06T16:17:53.424Z,1178.87
2019-05-06T16:20:22.430Z,897.03
2019-05-06T16:22:55.375Z,902.10
2019-05-06T16:25:24.466Z,931.83
2019-05-06T16:27:55.137Z,896.63
2019-05-06T16:30:24.628Z,883.63
2019-05-06T16:32:53.900Z,868.27
2019-05-06T16:35:23.103Z,869.53
2019-05-06T16:37:52.145Z,961.30
2019-05-06T16:40:22.942Z,937.77
2019-05-06T16:42:54.407Z,1125.00
2019-05-06T16:45:23.872Z,968.60
2019-05-06T16:47:53.008Z,1999.90
2019-05-06T16:50:23.699Z,1999.90
2019-05-06T16:52:52.957Z,1999.90
2019-05-06T16:55:24.294Z,1459.87
2019-05-06T16:57:55.263Z,1122.80
2019-05-06T17:00:26.061Z,1190.63
2019-05-06T17:02:59.965Z,1999.90
2019-05-06T17:05:29.105Z,1999.90
2019-05-06T17:07:59.477Z,1317.93
2019-05-06T17:10:28.485Z,1999.90
2019-05-06T17:12:57.580Z,1999.90
2019-05-06T17:15:26.659Z,1278.93
2019-05-06T17:17:55.699Z,1739.40
2019-05-06T17:20:24.720Z,1591.43
2019-05-06T17:22:53.785Z,1762.70
2019-05-06T17:25:22.828Z,1840.43
2019-05-06T17:27:52.815Z,1792.00
2019-05-06T17:30:23.787Z,1845.73
2019-05-06T17:32:54.454Z,1902.03
2019-05-06T17:35:23.521Z,1912.60
2019-05-06T17:37:54.136Z,1887.77
2019-05-06T17:40:23.431Z,1840.43
2019-05-06T17:42:53.335Z,1890.37
2019-05-06T17:45:24.354Z,1809.10
2019-05-06T17:47:54.821Z,1821.30
2019-05-06T17:50:23.940Z,1696.40
2019-05-06T17:52:53.013Z,1938.57
2019-05-06T17:55:22.548Z,1762.37
2019-05-06T17:57:52.912Z,1869.27
2019-05-06T18:00:22.566Z,1669.90
2019-05-06T18:02:52.686Z,1634.67
2019-05-06T18:05:22.828Z,1659.20
2019-05-06T18:07:52.042Z,1657.80
2019-05-06T18:10:22.139Z,1656.30
2019-05-06T18:12:53.118Z,1733.53
2019-05-06T18:15:22.603Z,1653.87
2019-05-06T18:17:52.490Z,1744.07
2019-05-06T18:20:22.174Z,1593.17
2019-05-06T18:22:52.462Z,1647.20
2019-05-06T18:25:23.013Z,1607.87
2019-05-06T18:27:52.642Z,1671.13
2019-05-06T18:30:28.298Z,1746.03
2019-05-06T18:32:52.357Z,1695.20
2019-05-06T18:35:23.058Z,1779.60
2019-05-06T18:37:52.295Z,1736.50
2019-05-06T18:40:23.238Z,1702.97
2019-05-06T18:42:52.586Z,1757.37
2019-05-06T18:45:22.127Z,1685.97
2019-05-06T18:47:53.173Z,1680.50
2019-05-06T18:50:22.114Z,1638.33
2019-05-06T18:52:52.949Z,1774.13
2019-05-06T18:55:22.494Z,1654.37
2019-05-06T18:57:52.811Z,1652.20
2019-05-06T19:00:22.618Z,1632.13
2019-05-06T19:02:52.342Z,1660.63
2019-05-06T19:05:26.775Z,1574.90
2019-05-06T19:07:54.596Z,1999.90
2019-05-06T19:10:25.295Z,1676.27
2019-05-06T19:12:54.411Z,1999.90
2019-05-06T19:15:25.715Z,1903.50
2019-05-06T19:17:55.160Z,1754.67
2019-05-06T19:20:24.572Z,1699.63
2019-05-06T19:22:53.841Z,1732.97
2019-05-06T19:25:23.779Z,1711.13
2019-05-06T19:27:53.622Z,1610.27
2019-05-06T19:30:22.704Z,1795.97
2019-05-06T19:32:53.090Z,1705.30
2019-05-06T19:35:22.329Z,1727.47
2019-05-06T19:37:51.363Z,1623.67
2019-05-06T19:40:22.792Z,1685.70
2019-05-06T19:42:53.178Z,1682.30
2019-05-06T19:45:22.606Z,1741.40
2019-05-06T19:47:53.014Z,1748.77
2019-05-06T19:50:25.689Z,1703.30
2019-05-06T19:52:52.981Z,1641.60
2019-05-06T19:55:23.054Z,1724.73
2019-05-06T19:57:52.697Z,1698.33
2019-05-06T20:00:22.830Z,1720.57
2019-05-06T20:02:52.213Z,1581.73
2019-05-06T20:05:23.039Z,1811.10
2019-05-06T20:07:53.739Z,1852.83
2019-05-06T20:10:24.386Z,1771.87
2019-05-06T20:13:01.704Z,1716.70
2019-05-06T20:15:28.341Z,1764.87
2019-05-06T20:17:57.614Z,1806.73
2019-05-06T20:20:26.631Z,1838.53
2019-05-06T20:22:55.649Z,1836.87
2019-05-06T20:25:24.711Z,1893.57
2019-05-06T20:27:53.748Z,1930.90
2019-05-06T20:30:22.738Z,1962.20
2019-05-06T20:32:52.293Z,1999.90
2019-05-06T20:35:22.380Z,1999.90
2019-05-06T20:37:53.375Z,1999.90
2019-05-06T20:40:23.657Z,1885.60
2019-05-06T20:42:52.712Z,1999.03
2019-05-06T20:45:22.393Z,1998.03
2019-05-06T20:47:52.491Z,1999.90
2019-05-06T20:50:22.566Z,1949.70
2019-05-06T20:52:52.096Z,1999.90
2019-05-06T20:55:22.898Z,1897.73
2019-05-06T20:57:52.929Z,1999.90
2019-05-06T21:00:22.516Z,1999.90
2019-05-06T21:02:53.473Z,1999.90
2019-05-06T21:05:22.890Z,1999.90
2019-05-06T21:07:52.597Z,1999.90
2019-05-06T21:10:22.866Z,1999.90
2019-05-06T21:12:53.202Z,1999.90
2019-05-06T21:15:23.090Z,1999.90
2019-05-06T21:17:52.119Z,1999.90
2019-05-06T21:20:21.298Z,1999.90
2019-05-06T21:22:52.631Z,1999.90
2019-05-06T21:25:22.584Z,1999.90
2019-05-06T21:27:53.205Z,1999.90
2019-05-06T21:30:22.348Z,1999.90
2019-05-06T21:32:52.488Z,1999.90
2019-05-06T21:35:22.226Z,1999.90
2019-05-06T21:37:52.966Z,1999.90
2019-05-06T21:40:22.133Z,1999.90
2019-05-06T21:42:51.165Z,1999.90
2019-05-06T21:45:22.118Z,1999.90
2019-05-06T21:47:52.864Z,1999.90
2019-05-06T21:50:22.797Z,1999.90
2019-05-06T21:52:51.965Z,1999.90
2019-05-06T21:55:41.823Z,1999.90
2019-05-06T21:58:12.447Z,1999.90
2019-05-06T22:00:43.597Z,1999.90
2019-05-06T22:03:13.547Z,1999.90
2019-05-06T22:05:42.676Z,1999.90
2019-05-06T22:08:12.847Z,1999.90
2019-05-06T22:10:42.364Z,1999.90
2019-05-06T22:13:12.585Z,1999.90
2019-05-06T22:15:43.230Z,1999.90
2019-05-06T22:18:12.671Z,1999.90
2019-05-06T22:20:43.413Z,1999.90
2019-05-06T22:23:14.515Z,1999.90
2019-05-06T22:25:43.134Z,1999.90
2019-05-06T22:28:12.210Z,1999.90
2019-05-06T22:30:42.555Z,1999.90
2019-05-06T22:33:12.627Z,1999.90
2019-05-06T22:35:43.049Z,1999.90
2019-05-06T22:38:12.408Z,1999.90
2019-05-06T22:40:42.505Z,1999.90
2019-05-06T22:43:12.294Z,1999.90
2019-05-06T22:45:42.577Z,1999.90
2019-05-06T22:48:12.089Z,1999.90
2019-05-06T22:50:42.443Z,1999.90
2019-05-06T22:53:13.066Z,1999.90
2019-05-06T22:55:42.783Z,1999.90
2019-05-06T22:58:12.059Z,1999.90
2019-05-06T23:00:42.789Z,1999.90
2019-05-06T23:03:13.503Z,1999.90
2019-05-06T23:05:42.539Z,1999.90
2019-05-06T23:08:12.260Z,1999.90
2019-05-06T23:10:42.508Z,1999.90
2019-05-06T23:13:12.458Z,1999.90
2019-05-06T23:15:42.067Z,1999.90
2019-05-06T23:18:11.280Z,1999.90
2019-05-06T23:20:40.464Z,1999.90
2019-05-06T23:23:09.509Z,1999.90
2019-05-06T23:25:38.533Z,1999.90
2019-05-06T23:28:07.647Z,1999.90
2019-05-06T23:30:36.825Z,1999.90
2019-05-06T23:33:05.878Z,1999.90
2019-05-06T23:35:34.925Z,1999.90
2019-05-06T23:38:05.501Z,1999.90
2019-05-06T23:40:37.023Z,1999.90
2019-05-06T23:43:07.723Z,1999.90
2019-05-06T23:45:38.305Z,1999.90
2019-05-06T23:48:08.885Z,1999.90
2019-05-06T23:50:39.662Z,1999.90
2019-05-06T23:53:12.233Z,1999.90
2019-05-06T23:55:44.151Z,1999.90
2019-05-06T23:58:14.703Z,1999.90
